sensor_id;sensor_type;location;lat;lon;timestamp;temperature;humidity
45115;DHT22;30877;43.706;10.780;2023-07-13T00:00:48;29.30;96.70
45115;DHT22;30877;43.706;10.780;2023-07-13T00:03:18;29.20;96.70
45115;DHT22;30877;43.706;10.780;2023-07-13T00:05:46;29.00;96.70
45115;DHT22;30877;43.706;10.780;2023-07-13T00:08:16;29.00;96.70
45115;DHT22;30877;43.706;10.780;2023-07-13T00:10:44;28.90;96.70
45115;DHT22;30877;43.706;10.780;2023-07-13T00:13:13;28.80;96.70
45115;DHT22;30877;43.706;10.780;2023-07-13T00:15:41;28.90;96.70
45115;DHT22;30877;43.706;10.780;2023-07-13T00:18:09;28.90;96.70
45115;DHT22;30877;43.706;10.780;2023-07-13T00:20:39;28.80;96.70
45115;DHT22;30877;43.706;10.780;2023-07-13T00:23:09;28.80;96.70
45115;DHT22;30877;43.706;10.780;2023-07-13T00:25:37;28.60;96.70
45115;DHT22;30877;43.706;10.780;2023-07-13T00:28:07;28.40;96.70
45115;DHT22;30877;43.706;10.780;2023-07-13T00:30:35;28.40;96.70
45115;DHT22;30877;43.706;10.780;2023-07-13T00:33:03;28.60;96.70
45115;DHT22;30877;43.706;10.780;2023-07-13T00:35:46;28.60;96.70
45115;DHT22;30877;43.706;10.780;2023-07-13T00:38:15;28.70;96.70
45115;DHT22;30877;43.706;10.780;2023-07-13T00:40:44;28.80;96.70
45115;DHT22;30877;43.706;10.780;2023-07-13T00:43:13;28.90;96.70
45115;DHT22;30877;43.706;10.780;2023-07-13T00:46:13;28.80;96.70
45115;DHT22;30877;43.706;10.780;2023-07-13T00:48:43;28.90;96.70
45115;DHT22;30877;43.706;10.780;2023-07-13T00:51:19;28.90;96.70
45115;DHT22;30877;43.706;10.780;2023-07-13T00:53:49;29.00;96.70
45115;DHT22;30877;43.706;10.780;2023-07-13T00:56:17;28.80;96.70
45115;DHT22;30877;43.706;10.780;2023-07-13T00:58:46;28.70;96.70
45115;DHT22;30877;43.706;10.780;2023-07-13T01:01:14;28.80;96.70
45115;DHT22;30877;43.706;10.780;2023-07-13T01:03:43;28.80;96.70
45115;DHT22;30877;43.706;10.780;2023-07-13T01:06:11;28.70;96.70
45115;DHT22;30877;43.706;10.780;2023-07-13T01:08:41;28.70;96.70
45115;DHT22;30877;43.706;10.780;2023-07-13T01:11:09;28.60;96.70
45115;DHT22;30877;43.706;10.780;2023-07-13T01:13:38;28.60;96.70
45115;DHT22;30877;43.706;10.780;2023-07-13T01:16:14;28.70;96.70
45115;DHT22;30877;43.706;10.780;2023-07-13T01:18:43;28.80;96.70
45115;DHT22;30877;43.706;10.780;2023-07-13T01:21:12;28.70;96.70
45115;DHT22;30877;43.706;10.780;2023-07-13T01:23:41;28.50;96.70
45115;DHT22;30877;43.706;10.780;2023-07-13T01:26:09;28.60;96.70
45115;DHT22;30877;43.706;10.780;2023-07-13T01:28:38;28.70;96.70
45115;DHT22;30877;43.706;10.780;2023-07-13T01:31:08;28.70;96.70
45115;DHT22;30877;43.706;10.780;2023-07-13T01:33:37;28.60;96.70
45115;DHT22;30877;43.706;10.780;2023-07-13T01:36:08;28.60;96.70
45115;DHT22;30877;43.706;10.780;2023-07-13T01:38:39;28.60;96.70
45115;DHT22;30877;43.706;10.780;2023-07-13T01:41:11;28.70;96.70
45115;DHT22;30877;43.706;10.780;2023-07-13T01:43:39;28.60;96.70
45115;DHT22;30877;43.706;10.780;2023-07-13T01:46:07;28.50;96.70
45115;DHT22;30877;43.706;10.780;2023-07-13T01:48:50;28.60;96.70
45115;DHT22;30877;43.706;10.780;2023-07-13T01:51:19;28.70;96.70
45115;DHT22;30877;43.706;10.780;2023-07-13T01:53:49;28.80;96.70
45115;DHT22;30877;43.706;10.780;2023-07-13T01:56:17;28.60;96.70
45115;DHT22;30877;43.706;10.780;2023-07-13T01:58:46;28.60;96.70
45115;DHT22;30877;43.706;10.780;2023-07-13T02:01:14;28.60;96.70
45115;DHT22;30877;43.706;10.780;2023-07-13T02:03:42;28.60;96.70
45115;DHT22;30877;43.706;10.780;2023-07-13T02:06:11;28.70;96.70
45115;DHT22;30877;43.706;10.780;2023-07-13T02:08:41;28.60;96.70
45115;DHT22;30877;43.706;10.780;2023-07-13T02:11:12;28.70;96.70
45115;DHT22;30877;43.706;10.780;2023-07-13T02:13:40;28.60;96.70
45115;DHT22;30877;43.706;10.780;2023-07-13T02:16:09;28.50;96.70
45115;DHT22;30877;43.706;10.780;2023-07-13T02:18:38;28.40;96.70
45115;DHT22;30877;43.706;10.780;2023-07-13T02:21:06;28.20;96.70
45115;DHT22;30877;43.706;10.780;2023-07-13T02:23:35;28.30;96.70
45115;DHT22;30877;43.706;10.780;2023-07-13T02:26:04;28.20;96.70
45115;DHT22;30877;43.706;10.780;2023-07-13T02:28:34;28.30;96.70
45115;DHT22;30877;43.706;10.780;2023-07-13T02:31:07;28.40;96.70
45115;DHT22;30877;43.706;10.780;2023-07-13T02:33:36;28.40;96.70
45115;DHT22;30877;43.706;10.780;2023-07-13T02:36:05;28.40;96.70
45115;DHT22;30877;43.706;10.780;2023-07-13T02:38:34;28.40;96.70
45115;DHT22;30877;43.706;10.780;2023-07-13T02:41:04;28.50;96.70
45115;DHT22;30877;43.706;10.780;2023-07-13T02:43:34;28.50;96.70
45115;DHT22;30877;43.706;10.780;2023-07-13T02:46:02;28.40;96.70
45115;DHT22;30877;43.706;10.780;2023-07-13T02:48:38;28.30;96.70
45115;DHT22;30877;43.706;10.780;2023-07-13T02:51:07;28.30;96.70
45115;DHT22;30877;43.706;10.780;2023-07-13T02:53:36;28.20;96.70
45115;DHT22;30877;43.706;10.780;2023-07-13T02:56:04;28.20;96.70
45115;DHT22;30877;43.706;10.780;2023-07-13T02:58:34;28.20;96.70
45115;DHT22;30877;43.706;10.780;2023-07-13T03:01:07;28.30;96.70
45115;DHT22;30877;43.706;10.780;2023-07-13T03:03:36;28.30;96.70
45115;DHT22;30877;43.706;10.780;2023-07-13T03:06:05;28.30;96.70
45115;DHT22;30877;43.706;10.780;2023-07-13T03:08:46;28.20;96.70
45115;DHT22;30877;43.706;10.780;2023-07-13T03:11:18;28.20;96.70
45115;DHT22;30877;43.706;10.780;2023-07-13T03:13:58;28.20;96.70
45115;DHT22;30877;43.706;10.780;2023-07-13T03:16:29;28.30;96.70
45115;DHT22;30877;43.706;10.780;2023-07-13T03:18:57;28.30;96.70
45115;DHT22;30877;43.706;10.780;2023-07-13T03:21:25;28.30;96.70
45115;DHT22;30877;43.706;10.780;2023-07-13T03:23:53;28.30;96.70
45115;DHT22;30877;43.706;10.780;2023-07-13T03:26:22;28.30;96.70
45115;DHT22;30877;43.706;10.780;2023-07-13T03:28:50;28.30;96.70
45115;DHT22;30877;43.706;10.780;2023-07-13T03:31:25;28.20;96.70
45115;DHT22;30877;43.706;10.780;2023-07-13T03:33:53;28.10;96.70
45115;DHT22;30877;43.706;10.780;2023-07-13T03:36:23;28.10;96.70
45115;DHT22;30877;43.706;10.780;2023-07-13T03:38:58;28.20;96.70
45115;DHT22;30877;43.706;10.780;2023-07-13T03:41:34;28.30;96.70
45115;DHT22;30877;43.706;10.780;2023-07-13T03:44:03;28.40;96.70
45115;DHT22;30877;43.706;10.780;2023-07-13T03:46:34;28.40;96.70
45115;DHT22;30877;43.706;10.780;2023-07-13T03:49:05;28.30;96.70
45115;DHT22;30877;43.706;10.780;2023-07-13T03:51:34;28.30;96.70
45115;DHT22;30877;43.706;10.780;2023-07-13T03:54:02;28.30;96.70
45115;DHT22;30877;43.706;10.780;2023-07-13T03:56:32;28.30;96.70
45115;DHT22;30877;43.706;10.780;2023-07-13T03:59:02;28.30;96.70
45115;DHT22;30877;43.706;10.780;2023-07-13T04:01:31;28.20;96.70
45115;DHT22;30877;43.706;10.780;2023-07-13T04:04:01;28.30;96.70
45115;DHT22;30877;43.706;10.780;2023-07-13T04:06:31;28.20;96.70
45115;DHT22;30877;43.706;10.780;2023-07-13T04:09:01;28.30;96.70
45115;DHT22;30877;43.706;10.780;2023-07-13T04:11:31;28.30;96.70
45115;DHT22;30877;43.706;10.780;2023-07-13T04:14:00;28.30;96.70
45115;DHT22;30877;43.706;10.780;2023-07-13T04:16:29;28.30;96.70
45115;DHT22;30877;43.706;10.780;2023-07-13T04:18:57;28.30;96.70
45115;DHT22;30877;43.706;10.780;2023-07-13T04:21:30;28.30;96.70
45115;DHT22;30877;43.706;10.780;2023-07-13T04:23:59;28.30;96.70
45115;DHT22;30877;43.706;10.780;2023-07-13T04:26:28;28.10;96.70
45115;DHT22;30877;43.706;10.780;2023-07-13T04:28:57;28.10;96.70
45115;DHT22;30877;43.706;10.780;2023-07-13T04:31:25;28.20;96.70
45115;DHT22;30877;43.706;10.780;2023-07-13T04:33:53;28.20;96.70
45115;DHT22;30877;43.706;10.780;2023-07-13T04:36:22;28.30;96.70
45115;DHT22;30877;43.706;10.780;2023-07-13T04:38:51;28.30;96.70
45115;DHT22;30877;43.706;10.780;2023-07-13T04:41:21;28.30;96.70
45115;DHT22;30877;43.706;10.780;2023-07-13T04:43:49;28.20;96.70
45115;DHT22;30877;43.706;10.780;2023-07-13T04:46:18;28.20;96.70
45115;DHT22;30877;43.706;10.780;2023-07-13T04:48:48;28.30;96.70
45115;DHT22;30877;43.706;10.780;2023-07-13T04:51:17;28.30;96.70
45115;DHT22;30877;43.706;10.780;2023-07-13T04:53:45;28.30;96.70
45115;DHT22;30877;43.706;10.780;2023-07-13T04:56:15;28.40;96.70
45115;DHT22;30877;43.706;10.780;2023-07-13T04:58:43;28.40;96.70
45115;DHT22;30877;43.706;10.780;2023-07-13T05:01:11;28.40;96.70
45115;DHT22;30877;43.706;10.780;2023-07-13T05:03:42;28.20;96.70
45115;DHT22;30877;43.706;10.780;2023-07-13T05:06:10;28.10;96.70
45115;DHT22;30877;43.706;10.780;2023-07-13T05:08:38;28.20;96.70
45115;DHT22;30877;43.706;10.780;2023-07-13T05:11:06;28.40;96.70
45115;DHT22;30877;43.706;10.780;2023-07-13T05:13:36;28.30;96.70
45115;DHT22;30877;43.706;10.780;2023-07-13T05:16:05;28.20;96.70
45115;DHT22;30877;43.706;10.780;2023-07-13T05:18:36;28.20;96.70
45115;DHT22;30877;43.706;10.780;2023-07-13T05:21:10;28.10;96.70
45115;DHT22;30877;43.706;10.780;2023-07-13T05:23:39;28.10;96.70
45115;DHT22;30877;43.706;10.780;2023-07-13T05:26:10;28.20;96.70
45115;DHT22;30877;43.706;10.780;2023-07-13T05:28:40;28.40;96.70
45115;DHT22;30877;43.706;10.780;2023-07-13T05:31:08;28.50;96.70
45115;DHT22;30877;43.706;10.780;2023-07-13T05:33:38;28.50;96.70
45115;DHT22;30877;43.706;10.780;2023-07-13T05:36:06;28.40;96.70
45115;DHT22;30877;43.706;10.780;2023-07-13T05:38:35;28.50;96.70
45115;DHT22;30877;43.706;10.780;2023-07-13T05:41:03;28.60;96.70
45115;DHT22;30877;43.706;10.780;2023-07-13T05:43:33;28.70;96.70
45115;DHT22;30877;43.706;10.780;2023-07-13T05:46:03;28.70;96.70
45115;DHT22;30877;43.706;10.780;2023-07-13T05:48:31;28.70;96.70
45115;DHT22;30877;43.706;10.780;2023-07-13T05:50:59;28.80;96.70
45115;DHT22;30877;43.706;10.780;2023-07-13T05:53:28;28.70;96.70
45115;DHT22;30877;43.706;10.780;2023-07-13T05:55:56;28.70;96.70
45115;DHT22;30877;43.706;10.780;2023-07-13T05:58:28;28.70;96.70
45115;DHT22;30877;43.706;10.780;2023-07-13T06:01:03;28.80;96.70
45115;DHT22;30877;43.706;10.780;2023-07-13T06:03:32;28.80;96.70
45115;DHT22;30877;43.706;10.780;2023-07-13T06:06:00;28.90;96.70
45115;DHT22;30877;43.706;10.780;2023-07-13T06:08:29;28.90;96.70
45115;DHT22;30877;43.706;10.780;2023-07-13T06:11:02;28.90;96.70
45115;DHT22;30877;43.706;10.780;2023-07-13T06:13:31;28.90;96.70
45115;DHT22;30877;43.706;10.780;2023-07-13T06:15:59;28.80;96.70
45115;DHT22;30877;43.706;10.780;2023-07-13T06:18:29;28.80;96.70
45115;DHT22;30877;43.706;10.780;2023-07-13T06:20:57;28.70;96.70
45115;DHT22;30877;43.706;10.780;2023-07-13T06:23:26;28.80;96.70
45115;DHT22;30877;43.706;10.780;2023-07-13T06:25:54;28.80;96.70
45115;DHT22;30877;43.706;10.780;2023-07-13T06:28:22;28.80;96.70
45115;DHT22;30877;43.706;10.780;2023-07-13T06:30:50;28.80;96.70
45115;DHT22;30877;43.706;10.780;2023-07-13T06:33:19;28.90;96.70
45115;DHT22;30877;43.706;10.780;2023-07-13T06:35:48;28.90;96.70
45115;DHT22;30877;43.706;10.780;2023-07-13T06:38:17;29.00;96.70
45115;DHT22;30877;43.706;10.780;2023-07-13T06:40:45;29.00;96.70
45115;DHT22;30877;43.706;10.780;2023-07-13T06:43:13;29.10;96.70
45115;DHT22;30877;43.706;10.780;2023-07-13T06:45:43;29.00;96.70
45115;DHT22;30877;43.706;10.780;2023-07-13T06:48:13;29.00;96.70
45115;DHT22;30877;43.706;10.780;2023-07-13T06:50:42;29.10;96.70
45115;DHT22;30877;43.706;10.780;2023-07-13T06:53:12;29.20;96.70
45115;DHT22;30877;43.706;10.780;2023-07-13T06:55:43;29.40;96.70
45115;DHT22;30877;43.706;10.780;2023-07-13T06:58:11;29.40;96.70
45115;DHT22;30877;43.706;10.780;2023-07-13T07:00:39;29.50;96.70
45115;DHT22;30877;43.706;10.780;2023-07-13T07:03:08;29.60;96.70
45115;DHT22;30877;43.706;10.780;2023-07-13T07:05:36;29.60;96.70
45115;DHT22;30877;43.706;10.780;2023-07-13T07:08:04;29.50;96.70
45115;DHT22;30877;43.706;10.780;2023-07-13T07:10:35;29.50;96.70
45115;DHT22;30877;43.706;10.780;2023-07-13T07:13:03;29.50;96.70
45115;DHT22;30877;43.706;10.780;2023-07-13T07:15:32;29.60;96.70
45115;DHT22;30877;43.706;10.780;2023-07-13T07:18:00;29.50;96.70
45115;DHT22;30877;43.706;10.780;2023-07-13T07:20:28;29.50;96.70
45115;DHT22;30877;43.706;10.780;2023-07-13T07:22:58;29.50;96.70
45115;DHT22;30877;43.706;10.780;2023-07-13T07:25:26;29.60;96.70
45115;DHT22;30877;43.706;10.780;2023-07-13T07:27:56;29.50;96.70
45115;DHT22;30877;43.706;10.780;2023-07-13T07:30:27;29.50;96.70
45115;DHT22;30877;43.706;10.780;2023-07-13T07:32:58;29.60;96.70
45115;DHT22;30877;43.706;10.780;2023-07-13T07:35:28;29.60;96.70
45115;DHT22;30877;43.706;10.780;2023-07-13T07:38:03;29.60;96.70
45115;DHT22;30877;43.706;10.780;2023-07-13T07:40:31;29.70;96.70
45115;DHT22;30877;43.706;10.780;2023-07-13T07:43:04;29.70;96.70
45115;DHT22;30877;43.706;10.780;2023-07-13T07:45:32;29.80;96.70
45115;DHT22;30877;43.706;10.780;2023-07-13T07:48:00;29.90;96.70
45115;DHT22;30877;43.706;10.780;2023-07-13T07:50:28;30.00;96.70
45115;DHT22;30877;43.706;10.780;2023-07-13T07:52:57;30.10;96.70
45115;DHT22;30877;43.706;10.780;2023-07-13T07:55:25;30.20;96.70
45115;DHT22;30877;43.706;10.780;2023-07-13T07:57:57;30.30;96.70
45115;DHT22;30877;43.706;10.780;2023-07-13T08:00:29;30.30;96.70
45115;DHT22;30877;43.706;10.780;2023-07-13T08:03:19;30.40;96.70
45115;DHT22;30877;43.706;10.780;2023-07-13T08:05:53;30.40;96.70
45115;DHT22;30877;43.706;10.780;2023-07-13T08:08:24;30.40;96.70
45115;DHT22;30877;43.706;10.780;2023-07-13T08:10:53;30.30;96.70
45115;DHT22;30877;43.706;10.780;2023-07-13T08:13:26;30.30;96.70
45115;DHT22;30877;43.706;10.780;2023-07-13T08:15:55;30.20;96.70
45115;DHT22;30877;43.706;10.780;2023-07-13T08:18:23;30.30;96.70
45115;DHT22;30877;43.706;10.780;2023-07-13T08:20:51;30.30;96.70
45115;DHT22;30877;43.706;10.780;2023-07-13T08:23:20;30.30;96.70
45115;DHT22;30877;43.706;10.780;2023-07-13T08:25:51;30.40;96.70
45115;DHT22;30877;43.706;10.780;2023-07-13T08:28:19;30.50;96.70
45115;DHT22;30877;43.706;10.780;2023-07-13T08:30:48;30.60;96.70
45115;DHT22;30877;43.706;10.780;2023-07-13T08:33:18;30.70;96.70
45115;DHT22;30877;43.706;10.780;2023-07-13T08:35:47;30.60;96.70
45115;DHT22;30877;43.706;10.780;2023-07-13T08:38:16;30.60;96.70
45115;DHT22;30877;43.706;10.780;2023-07-13T08:40:48;30.70;96.70
45115;DHT22;30877;43.706;10.780;2023-07-13T08:43:19;30.90;96.70
45115;DHT22;30877;43.706;10.780;2023-07-13T08:45:52;30.90;96.70
45115;DHT22;30877;43.706;10.780;2023-07-13T08:48:26;30.90;96.70
45115;DHT22;30877;43.706;10.780;2023-07-13T08:50:57;30.90;96.70
45115;DHT22;30877;43.706;10.780;2023-07-13T08:53:33;31.00;96.70
45115;DHT22;30877;43.706;10.780;2023-07-13T08:56:07;31.00;96.70
45115;DHT22;30877;43.706;10.780;2023-07-13T08:58:39;31.00;96.70
45115;DHT22;30877;43.706;10.780;2023-07-13T09:01:15;31.20;96.70
45115;DHT22;30877;43.706;10.780;2023-07-13T09:03:53;31.30;96.70
45115;DHT22;30877;43.706;10.780;2023-07-13T09:06:33;31.50;96.70
45115;DHT22;30877;43.706;10.780;2023-07-13T09:09:08;31.50;96.70
45115;DHT22;30877;43.706;10.780;2023-07-13T09:11:46;31.50;96.70
45115;DHT22;30877;43.706;10.780;2023-07-13T09:14:37;31.40;96.70
45115;DHT22;30877;43.706;10.780;2023-07-13T09:17:13;31.30;96.70
45115;DHT22;30877;43.706;10.780;2023-07-13T09:19:46;31.20;96.70
45115;DHT22;30877;43.706;10.780;2023-07-13T09:22:20;31.30;96.70
45115;DHT22;30877;43.706;10.780;2023-07-13T09:24:57;31.60;96.70
45115;DHT22;30877;43.706;10.780;2023-07-13T09:27:31;31.70;96.70
45115;DHT22;30877;43.706;10.780;2023-07-13T09:30:15;31.60;96.70
45115;DHT22;30877;43.706;10.780;2023-07-13T09:32:50;31.50;96.70
45115;DHT22;30877;43.706;10.780;2023-07-13T09:35:25;31.30;96.70
45115;DHT22;30877;43.706;10.780;2023-07-13T09:37:59;31.30;96.70
45115;DHT22;30877;43.706;10.780;2023-07-13T09:40:40;31.30;96.70
45115;DHT22;30877;43.706;10.780;2023-07-13T09:43:11;31.30;96.70
45115;DHT22;30877;43.706;10.780;2023-07-13T09:45:41;31.30;96.70
45115;DHT22;30877;43.706;10.780;2023-07-13T09:48:14;31.50;96.70
45115;DHT22;30877;43.706;10.780;2023-07-13T09:50:44;31.50;96.70
45115;DHT22;30877;43.706;10.780;2023-07-13T09:53:14;31.60;96.70
45115;DHT22;30877;43.706;10.780;2023-07-13T09:55:45;31.50;96.70
45115;DHT22;30877;43.706;10.780;2023-07-13T09:58:18;31.50;96.70
45115;DHT22;30877;43.706;10.780;2023-07-13T10:00:55;31.50;96.70
45115;DHT22;30877;43.706;10.780;2023-07-13T10:03:27;31.50;96.70
45115;DHT22;30877;43.706;10.780;2023-07-13T10:06:03;31.50;96.70
45115;DHT22;30877;43.706;10.780;2023-07-13T10:08:35;31.40;96.70
45115;DHT22;30877;43.706;10.780;2023-07-13T10:11:10;31.30;96.70
45115;DHT22;30877;43.706;10.780;2023-07-13T10:13:43;31.40;96.70
45115;DHT22;30877;43.706;10.780;2023-07-13T10:16:12;31.50;96.70
45115;DHT22;30877;43.706;10.780;2023-07-13T10:18:45;31.40;96.70
45115;DHT22;30877;43.706;10.780;2023-07-13T10:21:19;31.30;96.70
45115;DHT22;30877;43.706;10.780;2023-07-13T10:24:06;31.20;96.70
45115;DHT22;30877;43.706;10.780;2023-07-13T10:26:43;31.10;96.70
45115;DHT22;30877;43.706;10.780;2023-07-13T10:29:14;31.00;96.70
45115;DHT22;30877;43.706;10.780;2023-07-13T10:31:45;30.80;96.70
45115;DHT22;30877;43.706;10.780;2023-07-13T10:34:13;30.50;96.70
45115;DHT22;30877;43.706;10.780;2023-07-13T10:36:45;30.00;96.70
45115;DHT22;30877;43.706;10.780;2023-07-13T10:39:17;29.80;96.70
45115;DHT22;30877;43.706;10.780;2023-07-13T10:41:49;29.50;96.70
45115;DHT22;30877;43.706;10.780;2023-07-13T10:44:22;29.40;96.70
45115;DHT22;30877;43.706;10.780;2023-07-13T10:46:55;29.40;96.70
45115;DHT22;30877;43.706;10.780;2023-07-13T10:49:26;29.40;96.70
45115;DHT22;30877;43.706;10.780;2023-07-13T10:51:57;29.50;96.70
45115;DHT22;30877;43.706;10.780;2023-07-13T10:54:28;29.50;96.70
45115;DHT22;30877;43.706;10.780;2023-07-13T10:57:17;29.50;96.70
45115;DHT22;30877;43.706;10.780;2023-07-13T10:59:47;29.50;96.70
45115;DHT22;30877;43.706;10.780;2023-07-13T11:02:25;29.40;96.70
45115;DHT22;30877;43.706;10.780;2023-07-13T11:04:55;29.40;96.70
45115;DHT22;30877;43.706;10.780;2023-07-13T11:07:28;29.50;96.70
45115;DHT22;30877;43.706;10.780;2023-07-13T11:09:58;29.50;96.70
45115;DHT22;30877;43.706;10.780;2023-07-13T11:12:29;29.80;96.70
45115;DHT22;30877;43.706;10.780;2023-07-13T11:15:30;30.00;96.70
45115;DHT22;30877;43.706;10.780;2023-07-13T11:18:02;30.20;96.70
45115;DHT22;30877;43.706;10.780;2023-07-13T11:20:34;30.30;96.70
45115;DHT22;30877;43.706;10.780;2023-07-13T11:23:30;30.30;96.70
45115;DHT22;30877;43.706;10.780;2023-07-13T11:25:59;30.50;96.70
45115;DHT22;30877;43.706;10.780;2023-07-13T11:28:31;30.70;96.70
45115;DHT22;30877;43.706;10.780;2023-07-13T11:31:13;30.90;96.70
45115;DHT22;30877;43.706;10.780;2023-07-13T11:34:00;30.90;96.70
45115;DHT22;30877;43.706;10.780;2023-07-13T11:36:31;31.00;96.70
45115;DHT22;30877;43.706;10.780;2023-07-13T11:39:14;31.10;96.70
45115;DHT22;30877;43.706;10.780;2023-07-13T11:41:48;31.50;96.70
45115;DHT22;30877;43.706;10.780;2023-07-13T11:44:19;31.70;96.70
45115;DHT22;30877;43.706;10.780;2023-07-13T11:46:49;31.80;96.70
45115;DHT22;30877;43.706;10.780;2023-07-13T11:49:23;31.70;96.70
45115;DHT22;30877;43.706;10.780;2023-07-13T11:51:51;31.60;96.70
45115;DHT22;30877;43.706;10.780;2023-07-13T11:54:27;31.60;96.70
45115;DHT22;30877;43.706;10.780;2023-07-13T11:56:57;32.00;96.70
45115;DHT22;30877;43.706;10.780;2023-07-13T11:59:30;32.30;96.70
45115;DHT22;30877;43.706;10.780;2023-07-13T12:01:59;32.50;96.70
45115;DHT22;30877;43.706;10.780;2023-07-13T12:04:28;32.70;96.70
45115;DHT22;30877;43.706;10.780;2023-07-13T12:07:05;32.80;96.70
45115;DHT22;30877;43.706;10.780;2023-07-13T12:09:35;32.70;96.70
45115;DHT22;30877;43.706;10.780;2023-07-13T12:12:11;32.40;96.70
45115;DHT22;30877;43.706;10.780;2023-07-13T12:14:39;32.60;96.70
45115;DHT22;30877;43.706;10.780;2023-07-13T12:17:18;32.60;96.70
45115;DHT22;30877;43.706;10.780;2023-07-13T12:19:48;32.70;96.70
45115;DHT22;30877;43.706;10.780;2023-07-13T12:22:17;32.80;96.70
45115;DHT22;30877;43.706;10.780;2023-07-13T12:24:48;33.00;96.70
45115;DHT22;30877;43.706;10.780;2023-07-13T12:27:22;33.10;96.70
45115;DHT22;30877;43.706;10.780;2023-07-13T12:29:51;33.10;96.70
45115;DHT22;30877;43.706;10.780;2023-07-13T12:32:21;33.30;96.70
45115;DHT22;30877;43.706;10.780;2023-07-13T12:34:54;33.50;96.70
45115;DHT22;30877;43.706;10.780;2023-07-13T12:37:24;33.70;96.70
45115;DHT22;30877;43.706;10.780;2023-07-13T12:39:54;33.70;96.70
45115;DHT22;30877;43.706;10.780;2023-07-13T12:42:24;33.70;96.70
45115;DHT22;30877;43.706;10.780;2023-07-13T12:44:58;33.70;96.70
45115;DHT22;30877;43.706;10.780;2023-07-13T12:47:28;33.90;96.70
45115;DHT22;30877;43.706;10.780;2023-07-13T12:49:58;33.90;96.70
45115;DHT22;30877;43.706;10.780;2023-07-13T12:52:30;33.70;96.70
45115;DHT22;30877;43.706;10.780;2023-07-13T12:55:07;33.50;96.70
45115;DHT22;30877;43.706;10.780;2023-07-13T12:57:53;33.40;96.70
45115;DHT22;30877;43.706;10.780;2023-07-13T13:00:28;33.60;96.70
45115;DHT22;30877;43.706;10.780;2023-07-13T13:02:57;33.70;96.70
45115;DHT22;30877;43.706;10.780;2023-07-13T13:05:58;33.80;96.70
45115;DHT22;30877;43.706;10.780;2023-07-13T13:08:27;33.70;96.70
45115;DHT22;30877;43.706;10.780;2023-07-13T13:10:56;33.80;96.70
45115;DHT22;30877;43.706;10.780;2023-07-13T13:13:24;34.00;96.70
45115;DHT22;30877;43.706;10.780;2023-07-13T13:15:53;34.10;96.70
45115;DHT22;30877;43.706;10.780;2023-07-13T13:18:22;34.10;96.70
45115;DHT22;30877;43.706;10.780;2023-07-13T13:20:51;34.40;96.70
45115;DHT22;30877;43.706;10.780;2023-07-13T13:23:20;34.40;96.70
45115;DHT22;30877;43.706;10.780;2023-07-13T13:25:50;34.40;96.70
45115;DHT22;30877;43.706;10.780;2023-07-13T13:28:23;34.40;96.70
45115;DHT22;30877;43.706;10.780;2023-07-13T13:30:51;34.30;96.70
45115;DHT22;30877;43.706;10.780;2023-07-13T13:33:21;34.30;96.70
45115;DHT22;30877;43.706;10.780;2023-07-13T13:35:49;34.40;96.70
45115;DHT22;30877;43.706;10.780;2023-07-13T13:38:27;34.60;96.70
45115;DHT22;30877;43.706;10.780;2023-07-13T13:40:55;34.50;96.70
45115;DHT22;30877;43.706;10.780;2023-07-13T13:43:26;34.50;96.70
45115;DHT22;30877;43.706;10.780;2023-07-13T13:45:56;34.60;96.70
45115;DHT22;30877;43.706;10.780;2023-07-13T13:48:30;34.80;96.70
45115;DHT22;30877;43.706;10.780;2023-07-13T13:51:00;34.90;96.70
45115;DHT22;30877;43.706;10.780;2023-07-13T13:53:28;35.00;96.70
45115;DHT22;30877;43.706;10.780;2023-07-13T13:55:56;34.80;96.70
45115;DHT22;30877;43.706;10.780;2023-07-13T13:58:25;34.90;96.70
45115;DHT22;30877;43.706;10.780;2023-07-13T14:00:53;34.90;96.70
45115;DHT22;30877;43.706;10.780;2023-07-13T14:03:21;35.00;96.70
45115;DHT22;30877;43.706;10.780;2023-07-13T14:05:50;35.10;96.70
45115;DHT22;30877;43.706;10.780;2023-07-13T14:08:20;35.30;96.70
45115;DHT22;30877;43.706;10.780;2023-07-13T14:10:50;35.40;96.70
45115;DHT22;30877;43.706;10.780;2023-07-13T14:13:21;35.40;96.70
45115;DHT22;30877;43.706;10.780;2023-07-13T14:15:51;35.50;96.70
45115;DHT22;30877;43.706;10.780;2023-07-13T14:18:20;35.80;96.70
45115;DHT22;30877;43.706;10.780;2023-07-13T14:20:48;35.60;96.70
45115;DHT22;30877;43.706;10.780;2023-07-13T14:23:16;35.60;96.70
45115;DHT22;30877;43.706;10.780;2023-07-13T14:25:46;35.60;96.70
45115;DHT22;30877;43.706;10.780;2023-07-13T14:28:22;35.80;96.70
45115;DHT22;30877;43.706;10.780;2023-07-13T14:30:53;35.70;96.70
45115;DHT22;30877;43.706;10.780;2023-07-13T14:33:22;35.60;96.70
45115;DHT22;30877;43.706;10.780;2023-07-13T14:35:51;35.90;96.70
45115;DHT22;30877;43.706;10.780;2023-07-13T14:38:21;36.00;96.70
45115;DHT22;30877;43.706;10.780;2023-07-13T14:40:49;35.80;96.70
45115;DHT22;30877;43.706;10.780;2023-07-13T14:43:17;36.10;96.70
45115;DHT22;30877;43.706;10.780;2023-07-13T14:45:47;36.30;96.70
45115;DHT22;30877;43.706;10.780;2023-07-13T14:48:21;36.40;96.70
45115;DHT22;30877;43.706;10.780;2023-07-13T14:50:54;36.50;96.70
45115;DHT22;30877;43.706;10.780;2023-07-13T14:53:24;36.80;96.70
45115;DHT22;30877;43.706;10.780;2023-07-13T14:55:52;36.80;96.70
45115;DHT22;30877;43.706;10.780;2023-07-13T14:58:21;37.10;96.70
45115;DHT22;30877;43.706;10.780;2023-07-13T15:00:49;37.30;96.70
45115;DHT22;30877;43.706;10.780;2023-07-13T15:03:24;37.50;96.70
45115;DHT22;30877;43.706;10.780;2023-07-13T15:05:53;37.50;96.70
45115;DHT22;30877;43.706;10.780;2023-07-13T15:08:22;37.60;96.70
45115;DHT22;30877;43.706;10.780;2023-07-13T15:10:51;37.50;96.70
45115;DHT22;30877;43.706;10.780;2023-07-13T15:13:21;37.00;96.70
45115;DHT22;30877;43.706;10.780;2023-07-13T15:15:51;37.40;96.70
45115;DHT22;30877;43.706;10.780;2023-07-13T15:18:23;37.60;96.70
45115;DHT22;30877;43.706;10.780;2023-07-13T15:20:52;37.60;96.70
45115;DHT22;30877;43.706;10.780;2023-07-13T15:23:21;37.60;96.70
45115;DHT22;30877;43.706;10.780;2023-07-13T15:25:50;37.80;96.70
45115;DHT22;30877;43.706;10.780;2023-07-13T15:28:19;37.20;96.70
45115;DHT22;30877;43.706;10.780;2023-07-13T15:30:48;37.60;96.70
45115;DHT22;30877;43.706;10.780;2023-07-13T15:33:21;38.00;96.70
45115;DHT22;30877;43.706;10.780;2023-07-13T15:35:52;38.10;96.70
45115;DHT22;30877;43.706;10.780;2023-07-13T15:38:23;38.30;96.70